CheckWX is a tool to help pilots better visualize weather data.  It is not intended as a substitute for an official pre-flight weather briefing.

19:01:30 UTC

ETHB METAR
Buckeburg Airport
Germany
Current

42 mins ago

ETHB 191820Z 28014KT 9999 FEW029 BKN046 08/03 Q1018 BLU BLU
Observed
Feb-19 @ 18:20 UTC
Wind
  • 280° at 14 KTS
Visibility
10,000+ meters
Flight Rules
VFR
Cloud Levels
  • Few at 2,900' AGL
  • Broken at 4,600' AGL
Temperature
C / 46°F
Dewpoint
C / 37°F
Humidity
71%
Altimeter
30.06" Hg
Pressure
1017.92 hPa
Previous

2 hours ago

ETHB 191720Z 27015KT 9999 -SHRA SCT027TCU BKN050 09/03 Q1017 BLU BLU
Observed
Feb-19 @ 17:20 UTC
Wind
  • 270° at 15 KTS
Visibility
10,000+ meters
Flight Rules
VFR
Conditions
Light Rain
Cloud Levels
  • Scattered at 2,700' AGL
  • Broken at 5,000' AGL
Temperature
C / 48°F
Dewpoint
C / 37°F
Humidity
66%
Altimeter
30.03" Hg
Pressure
1016.92 hPa
Previous

3 hours ago

ETHB 191620Z 26015KT 9999 FEW030 BKN037 09/03 Q1016 BLU BLU
Observed
Feb-19 @ 16:20 UTC
Wind
  • 260° at 15 KTS
Visibility
10,000+ meters
Flight Rules
VFR
Cloud Levels
  • Few at 3,000' AGL
  • Broken at 3,700' AGL
Temperature
C / 48°F
Dewpoint
C / 37°F
Humidity
66%
Altimeter
30" Hg
Pressure
1015.92 hPa